RKPK/PUS METAR and TAF weather

Enter ICAO airport designator
Station Type Date Time Source
RKPK METAR 2021/01/27 13:00 UTC NOAA

RKPK 271300Z 36005KT CAVOK 05/M04 Q1020


Station Type Date Time Source
RKPK Decoded METAR 2021/01/27 13:00 UTC NOAA

Pusan / Kimhae International Airport, Korea, South (RKPK) 35-11N 128-56E 6M
Jan 27, 2021 - 08:00 AM EST / 2021.01.27 1300 UTC
Wind: from the N (360 degrees) at 6 MPH (5 KT):0
Visibility: greater than 7 mile(s):0
Temperature: 41 F (5 C)
Dew Point: 24 F (-4 C)
Relative Humidity: 52%
Pressure (altimeter): 30.12 in. Hg (1020 hPa)
ob: RKPK 271300Z 36005KT CAVOK 05/M04 Q1020
cycle: 13

Station Type Date Time Source
RKPK TAF 2021/01/27 12:09 UTC NOAA

TAF RKPK 271100Z 2712/2818 36006KT CAVOK TNM01/2721Z TX05/2806Z
BECMG 2803/2804 24010G20KT 9999 BKN030

Example: see airport list